sensor_id;sensor_type;location;lat;lon;timestamp;P1;durP1;ratioP1;P2;durP2;ratioP2
1949;SDS011;975;48.760;9.152;2023-11-22T00:01:21;6.80;;;3.70;;
1949;SDS011;975;48.760;9.152;2023-11-22T00:03:50;9.20;;;3.60;;
1949;SDS011;975;48.760;9.152;2023-11-22T00:06:18;8.38;;;3.90;;
1949;SDS011;975;48.760;9.152;2023-11-22T00:08:46;10.45;;;3.97;;
1949;SDS011;975;48.760;9.152;2023-11-22T00:11:13;8.63;;;3.40;;
1949;SDS011;975;48.760;9.152;2023-11-22T00:13:42;7.43;;;2.70;;
1949;SDS011;975;48.760;9.152;2023-11-22T00:16:09;4.80;;;1.77;;
1949;SDS011;975;48.760;9.152;2023-11-22T00:18:37;3.40;;;1.40;;
1949;SDS011;975;48.760;9.152;2023-11-22T00:21:04;1.83;;;1.23;;
1949;SDS011;975;48.760;9.152;2023-11-22T00:23:32;3.30;;;1.88;;
1949;SDS011;975;48.760;9.152;2023-11-22T00:26:00;2.97;;;1.55;;
1949;SDS011;975;48.760;9.152;2023-11-22T00:28:27;2.42;;;1.48;;
1949;SDS011;975;48.760;9.152;2023-11-22T00:30:56;4.20;;;2.00;;
1949;SDS011;975;48.760;9.152;2023-11-22T00:33:24;3.80;;;1.52;;
1949;SDS011;975;48.760;9.152;2023-11-22T00:35:51;2.83;;;1.50;;
1949;SDS011;975;48.760;9.152;2023-11-22T00:38:22;2.42;;;1.50;;
1949;SDS011;975;48.760;9.152;2023-11-22T00:40:49;2.97;;;1.65;;
1949;SDS011;975;48.760;9.152;2023-11-22T00:43:17;3.28;;;1.75;;
1949;SDS011;975;48.760;9.152;2023-11-22T00:45:44;2.78;;;1.83;;
1949;SDS011;975;48.760;9.152;2023-11-22T00:48:13;2.83;;;1.83;;
1949;SDS011;975;48.760;9.152;2023-11-22T00:50:40;3.83;;;2.05;;
1949;SDS011;975;48.760;9.152;2023-11-22T00:53:08;3.83;;;2.00;;
1949;SDS011;975;48.760;9.152;2023-11-22T00:55:36;3.42;;;1.85;;
1949;SDS011;975;48.760;9.152;2023-11-22T00:58:03;3.65;;;2.28;;
1949;SDS011;975;48.760;9.152;2023-11-22T01:00:30;3.78;;;2.03;;
1949;SDS011;975;48.760;9.152;2023-11-22T01:02:58;4.43;;;2.22;;
1949;SDS011;975;48.760;9.152;2023-11-22T01:05:27;4.28;;;2.22;;
1949;SDS011;975;48.760;9.152;2023-11-22T01:07:54;4.90;;;2.00;;
1949;SDS011;975;48.760;9.152;2023-11-22T01:10:22;4.30;;;2.22;;
1949;SDS011;975;48.760;9.152;2023-11-22T01:12:50;6.20;;;2.72;;
1949;SDS011;975;48.760;9.152;2023-11-22T01:15:17;6.30;;;2.72;;
1949;SDS011;975;48.760;9.152;2023-11-22T01:17:45;4.50;;;2.10;;
1949;SDS011;975;48.760;9.152;2023-11-22T01:20:12;5.45;;;2.72;;
1949;SDS011;975;48.760;9.152;2023-11-22T01:22:41;5.13;;;2.60;;
1949;SDS011;975;48.760;9.152;2023-11-22T01:25:09;5.25;;;2.70;;
1949;SDS011;975;48.760;9.152;2023-11-22T01:27:36;5.78;;;2.63;;
1949;SDS011;975;48.760;9.152;2023-11-22T01:30:04;4.75;;;1.95;;
1949;SDS011;975;48.760;9.152;2023-11-22T01:32:33;6.47;;;2.25;;
1949;SDS011;975;48.760;9.152;2023-11-22T01:35:01;3.38;;;1.95;;
1949;SDS011;975;48.760;9.152;2023-11-22T01:37:28;3.38;;;1.92;;
1949;SDS011;975;48.760;9.152;2023-11-22T01:39:57;5.13;;;2.45;;
1949;SDS011;975;48.760;9.152;2023-11-22T01:42:25;4.43;;;2.25;;
1949;SDS011;975;48.760;9.152;2023-11-22T01:44:52;4.65;;;2.10;;
1949;SDS011;975;48.760;9.152;2023-11-22T01:47:20;6.72;;;2.50;;
1949;SDS011;975;48.760;9.152;2023-11-22T01:49:48;6.70;;;2.65;;
1949;SDS011;975;48.760;9.152;2023-11-22T01:52:16;4.40;;;2.50;;
1949;SDS011;975;48.760;9.152;2023-11-22T01:54:43;6.45;;;2.70;;
1949;SDS011;975;48.760;9.152;2023-11-22T01:57:12;4.85;;;2.35;;
1949;SDS011;975;48.760;9.152;2023-11-22T01:59:41;4.60;;;2.08;;
1949;SDS011;975;48.760;9.152;2023-11-22T02:02:09;4.15;;;1.98;;
1949;SDS011;975;48.760;9.152;2023-11-22T02:04:36;4.20;;;2.38;;
1949;SDS011;975;48.760;9.152;2023-11-22T02:07:04;4.65;;;2.35;;
1949;SDS011;975;48.760;9.152;2023-11-22T02:09:31;5.53;;;2.25;;
1949;SDS011;975;48.760;9.152;2023-11-22T02:11:59;3.80;;;2.17;;
1949;SDS011;975;48.760;9.152;2023-11-22T02:14:28;6.15;;;2.20;;
1949;SDS011;975;48.760;9.152;2023-11-22T02:16:58;3.35;;;1.73;;
1949;SDS011;975;48.760;9.152;2023-11-22T02:19:25;3.85;;;1.65;;
1949;SDS011;975;48.760;9.152;2023-11-22T02:21:55;3.90;;;2.00;;
1949;SDS011;975;48.760;9.152;2023-11-22T02:24:25;3.22;;;1.90;;
1949;SDS011;975;48.760;9.152;2023-11-22T02:26:53;4.90;;;2.05;;
1949;SDS011;975;48.760;9.152;2023-11-22T02:29:21;4.40;;;2.10;;
1949;SDS011;975;48.760;9.152;2023-11-22T02:31:49;2.75;;;1.48;;
1949;SDS011;975;48.760;9.152;2023-11-22T02:34:16;6.13;;;2.03;;
1949;SDS011;975;48.760;9.152;2023-11-22T02:36:44;3.50;;;1.85;;
1949;SDS011;975;48.760;9.152;2023-11-22T02:39:12;3.17;;;1.77;;
1949;SDS011;975;48.760;9.152;2023-11-22T02:41:41;4.53;;;2.03;;
1949;SDS011;975;48.760;9.152;2023-11-22T02:44:10;3.92;;;1.25;;
1949;SDS011;975;48.760;9.152;2023-11-22T02:46:41;4.45;;;2.05;;
1949;SDS011;975;48.760;9.152;2023-11-22T02:49:08;2.70;;;1.60;;
1949;SDS011;975;48.760;9.152;2023-11-22T02:51:36;4.97;;;2.45;;
1949;SDS011;975;48.760;9.152;2023-11-22T02:54:04;7.35;;;2.90;;
1949;SDS011;975;48.760;9.152;2023-11-22T02:56:31;3.50;;;1.85;;
1949;SDS011;975;48.760;9.152;2023-11-22T02:59:00;5.07;;;2.25;;
1949;SDS011;975;48.760;9.152;2023-11-22T03:01:28;6.05;;;2.42;;
1949;SDS011;975;48.760;9.152;2023-11-22T03:03:55;5.72;;;1.95;;
1949;SDS011;975;48.760;9.152;2023-11-22T03:06:25;5.15;;;2.10;;
1949;SDS011;975;48.760;9.152;2023-11-22T03:08:53;4.70;;;2.30;;
1949;SDS011;975;48.760;9.152;2023-11-22T03:11:20;3.55;;;2.13;;
1949;SDS011;975;48.760;9.152;2023-11-22T03:13:48;4.30;;;1.80;;
1949;SDS011;975;48.760;9.152;2023-11-22T03:16:17;3.42;;;2.03;;
1949;SDS011;975;48.760;9.152;2023-11-22T03:18:44;4.20;;;2.10;;
1949;SDS011;975;48.760;9.152;2023-11-22T03:21:12;5.15;;;2.40;;
1949;SDS011;975;48.760;9.152;2023-11-22T03:23:40;4.78;;;1.83;;
1949;SDS011;975;48.760;9.152;2023-11-22T03:26:07;4.65;;;2.00;;
1949;SDS011;975;48.760;9.152;2023-11-22T03:28:35;3.20;;;1.85;;
1949;SDS011;975;48.760;9.152;2023-11-22T03:31:02;5.40;;;2.25;;
1949;SDS011;975;48.760;9.152;2023-11-22T03:33:34;3.85;;;2.15;;
1949;SDS011;975;48.760;9.152;2023-11-22T03:36:03;5.00;;;2.33;;
1949;SDS011;975;48.760;9.152;2023-11-22T03:38:31;4.82;;;2.42;;
1949;SDS011;975;48.760;9.152;2023-11-22T03:40:59;5.32;;;2.08;;
1949;SDS011;975;48.760;9.152;2023-11-22T03:43:26;2.83;;;1.45;;
1949;SDS011;975;48.760;9.152;2023-11-22T03:45:54;4.20;;;1.80;;
1949;SDS011;975;48.760;9.152;2023-11-22T03:48:21;3.72;;;2.10;;
1949;SDS011;975;48.760;9.152;2023-11-22T03:50:50;5.45;;;2.42;;
1949;SDS011;975;48.760;9.152;2023-11-22T03:53:18;4.55;;;1.95;;
1949;SDS011;975;48.760;9.152;2023-11-22T03:55:47;6.18;;;2.10;;
1949;SDS011;975;48.760;9.152;2023-11-22T03:58:15;6.57;;;2.15;;
1949;SDS011;975;48.760;9.152;2023-11-22T04:00:43;4.45;;;2.22;;
1949;SDS011;975;48.760;9.152;2023-11-22T04:03:11;5.13;;;1.95;;
1949;SDS011;975;48.760;9.152;2023-11-22T04:05:38;4.53;;;2.65;;
1949;SDS011;975;48.760;9.152;2023-11-22T04:08:08;5.45;;;2.90;;
1949;SDS011;975;48.760;9.152;2023-11-22T04:10:36;5.63;;;2.45;;
1949;SDS011;975;48.760;9.152;2023-11-22T04:13:04;5.38;;;2.45;;
1949;SDS011;975;48.760;9.152;2023-11-22T04:15:31;4.10;;;2.03;;
1949;SDS011;975;48.760;9.152;2023-11-22T04:17:59;5.80;;;2.47;;
1949;SDS011;975;48.760;9.152;2023-11-22T04:20:26;5.20;;;2.67;;
1949;SDS011;975;48.760;9.152;2023-11-22T04:22:54;4.63;;;2.38;;
1949;SDS011;975;48.760;9.152;2023-11-22T04:25:23;6.28;;;2.47;;
1949;SDS011;975;48.760;9.152;2023-11-22T04:27:51;4.30;;;1.95;;
1949;SDS011;975;48.760;9.152;2023-11-22T04:30:18;5.05;;;2.30;;
1949;SDS011;975;48.760;9.152;2023-11-22T04:32:46;5.57;;;2.38;;
1949;SDS011;975;48.760;9.152;2023-11-22T04:35:14;5.90;;;2.45;;
1949;SDS011;975;48.760;9.152;2023-11-22T04:37:41;5.40;;;2.33;;
1949;SDS011;975;48.760;9.152;2023-11-22T04:40:09;6.00;;;2.80;;
1949;SDS011;975;48.760;9.152;2023-11-22T04:42:39;3.00;;;2.42;;
1949;SDS011;975;48.760;9.152;2023-11-22T04:45:07;3.63;;;1.88;;
1949;SDS011;975;48.760;9.152;2023-11-22T04:47:35;5.10;;;2.53;;
1949;SDS011;975;48.760;9.152;2023-11-22T04:50:02;6.05;;;2.60;;
1949;SDS011;975;48.760;9.152;2023-11-22T04:52:30;6.55;;;2.88;;
1949;SDS011;975;48.760;9.152;2023-11-22T04:54:57;4.80;;;2.35;;
1949;SDS011;975;48.760;9.152;2023-11-22T04:57:25;5.57;;;2.40;;
1949;SDS011;975;48.760;9.152;2023-11-22T04:59:55;6.47;;;2.63;;
1949;SDS011;975;48.760;9.152;2023-11-22T05:02:22;5.70;;;2.63;;
1949;SDS011;975;48.760;9.152;2023-11-22T05:04:52;4.22;;;2.15;;
1949;SDS011;975;48.760;9.152;2023-11-22T05:07:19;3.85;;;2.25;;
1949;SDS011;975;48.760;9.152;2023-11-22T05:09:47;4.72;;;2.30;;
1949;SDS011;975;48.760;9.152;2023-11-22T05:12:14;4.32;;;1.80;;
1949;SDS011;975;48.760;9.152;2023-11-22T05:14:42;5.95;;;2.50;;
1949;SDS011;975;48.760;9.152;2023-11-22T05:17:12;4.88;;;2.65;;
1949;SDS011;975;48.760;9.152;2023-11-22T05:19:39;5.13;;;2.33;;
1949;SDS011;975;48.760;9.152;2023-11-22T05:22:07;5.50;;;2.38;;
1949;SDS011;975;48.760;9.152;2023-11-22T05:24:34;6.05;;;2.30;;
1949;SDS011;975;48.760;9.152;2023-11-22T05:27:04;4.18;;;2.08;;
1949;SDS011;975;48.760;9.152;2023-11-22T05:29:32;3.00;;;1.83;;
1949;SDS011;975;48.760;9.152;2023-11-22T05:31:59;4.35;;;2.78;;
1949;SDS011;975;48.760;9.152;2023-11-22T05:34:29;4.80;;;2.20;;
1949;SDS011;975;48.760;9.152;2023-11-22T05:36:57;4.35;;;2.22;;
1949;SDS011;975;48.760;9.152;2023-11-22T05:39:25;4.68;;;2.35;;
1949;SDS011;975;48.760;9.152;2023-11-22T05:41:52;7.90;;;2.50;;
1949;SDS011;975;48.760;9.152;2023-11-22T05:44:22;4.50;;;2.25;;
1949;SDS011;975;48.760;9.152;2023-11-22T05:46:50;4.30;;;1.92;;
1949;SDS011;975;48.760;9.152;2023-11-22T05:49:19;4.15;;;2.08;;
1949;SDS011;975;48.760;9.152;2023-11-22T05:51:48;4.63;;;2.10;;
1949;SDS011;975;48.760;9.152;2023-11-22T05:54:16;4.30;;;2.00;;
1949;SDS011;975;48.760;9.152;2023-11-22T05:56:43;4.43;;;2.25;;
1949;SDS011;975;48.760;9.152;2023-11-22T05:59:11;5.05;;;2.38;;
1949;SDS011;975;48.760;9.152;2023-11-22T06:01:38;4.63;;;2.20;;
1949;SDS011;975;48.760;9.152;2023-11-22T06:04:06;6.45;;;2.33;;
1949;SDS011;975;48.760;9.152;2023-11-22T06:06:34;5.00;;;2.47;;
1949;SDS011;975;48.760;9.152;2023-11-22T06:09:03;4.72;;;1.95;;
1949;SDS011;975;48.760;9.152;2023-11-22T06:11:32;6.63;;;2.58;;
1949;SDS011;975;48.760;9.152;2023-11-22T06:14:00;7.40;;;2.55;;
1949;SDS011;975;48.760;9.152;2023-11-22T06:16:28;3.75;;;1.60;;
1949;SDS011;975;48.760;9.152;2023-11-22T06:18:55;5.03;;;2.03;;
1949;SDS011;975;48.760;9.152;2023-11-22T06:21:23;6.15;;;2.33;;
1949;SDS011;975;48.760;9.152;2023-11-22T06:23:52;4.72;;;2.35;;
1949;SDS011;975;48.760;9.152;2023-11-22T06:26:22;5.15;;;2.15;;
1949;SDS011;975;48.760;9.152;2023-11-22T06:28:49;5.10;;;2.38;;
1949;SDS011;975;48.760;9.152;2023-11-22T06:31:17;4.30;;;2.10;;
1949;SDS011;975;48.760;9.152;2023-11-22T06:33:44;8.18;;;2.17;;
1949;SDS011;975;48.760;9.152;2023-11-22T06:36:12;6.22;;;2.22;;
1949;SDS011;975;48.760;9.152;2023-11-22T06:38:40;3.75;;;2.10;;
1949;SDS011;975;48.760;9.152;2023-11-22T06:41:07;5.35;;;2.22;;
1949;SDS011;975;48.760;9.152;2023-11-22T06:43:36;3.90;;;2.13;;
1949;SDS011;975;48.760;9.152;2023-11-22T06:46:04;6.72;;;2.30;;
1949;SDS011;975;48.760;9.152;2023-11-22T06:48:32;3.72;;;1.73;;
1949;SDS011;975;48.760;9.152;2023-11-22T06:50:59;3.60;;;1.85;;
1949;SDS011;975;48.760;9.152;2023-11-22T06:53:26;5.20;;;2.60;;
1949;SDS011;975;48.760;9.152;2023-11-22T06:55:54;4.60;;;2.00;;
1949;SDS011;975;48.760;9.152;2023-11-22T06:58:21;2.58;;;2.00;;
1949;SDS011;975;48.760;9.152;2023-11-22T07:00:51;4.32;;;1.92;;
1949;SDS011;975;48.760;9.152;2023-11-22T07:03:18;6.78;;;1.90;;
1949;SDS011;975;48.760;9.152;2023-11-22T07:05:46;3.03;;;1.80;;
1949;SDS011;975;48.760;9.152;2023-11-22T07:08:14;4.70;;;1.80;;
1949;SDS011;975;48.760;9.152;2023-11-22T07:10:42;3.75;;;2.25;;
1949;SDS011;975;48.760;9.152;2023-11-22T07:13:10;5.03;;;1.75;;
1949;SDS011;975;48.760;9.152;2023-11-22T07:15:38;4.22;;;2.03;;
1949;SDS011;975;48.760;9.152;2023-11-22T07:18:07;4.85;;;1.60;;
1949;SDS011;975;48.760;9.152;2023-11-22T07:20:35;4.10;;;1.88;;
1949;SDS011;975;48.760;9.152;2023-11-22T07:23:04;6.40;;;1.75;;
1949;SDS011;975;48.760;9.152;2023-11-22T07:25:32;3.95;;;1.73;;
1949;SDS011;975;48.760;9.152;2023-11-22T07:27:59;4.72;;;1.80;;
1949;SDS011;975;48.760;9.152;2023-11-22T07:30:27;4.78;;;1.63;;
1949;SDS011;975;48.760;9.152;2023-11-22T07:32:56;5.43;;;2.08;;
1949;SDS011;975;48.760;9.152;2023-11-22T07:35:25;3.72;;;1.67;;
1949;SDS011;975;48.760;9.152;2023-11-22T07:37:53;2.83;;;1.70;;
1949;SDS011;975;48.760;9.152;2023-11-22T07:40:21;3.05;;;1.85;;
1949;SDS011;975;48.760;9.152;2023-11-22T07:42:48;6.25;;;2.08;;
1949;SDS011;975;48.760;9.152;2023-11-22T07:45:16;3.88;;;1.77;;
1949;SDS011;975;48.760;9.152;2023-11-22T07:47:44;3.28;;;1.60;;
1949;SDS011;975;48.760;9.152;2023-11-22T07:50:12;2.90;;;1.65;;
1949;SDS011;975;48.760;9.152;2023-11-22T07:52:42;3.65;;;1.58;;
1949;SDS011;975;48.760;9.152;2023-11-22T07:55:09;3.80;;;1.63;;
1949;SDS011;975;48.760;9.152;2023-11-22T07:57:37;3.22;;;1.42;;
1949;SDS011;975;48.760;9.152;2023-11-22T08:00:05;3.83;;;1.75;;
1949;SDS011;975;48.760;9.152;2023-11-22T08:02:33;3.30;;;1.60;;
1949;SDS011;975;48.760;9.152;2023-11-22T08:05:06;3.42;;;1.55;;
1949;SDS011;975;48.760;9.152;2023-11-22T08:07:34;2.53;;;1.35;;
1949;SDS011;975;48.760;9.152;2023-11-22T08:10:06;4.35;;;1.90;;
1949;SDS011;975;48.760;9.152;2023-11-22T08:12:40;5.40;;;3.05;;
1949;SDS011;975;48.760;9.152;2023-11-22T08:15:08;4.45;;;1.80;;
1949;SDS011;975;48.760;9.152;2023-11-22T08:17:38;3.92;;;1.77;;
1949;SDS011;975;48.760;9.152;2023-11-22T08:20:06;2.22;;;1.50;;
1949;SDS011;975;48.760;9.152;2023-11-22T08:22:37;3.72;;;1.73;;
1949;SDS011;975;48.760;9.152;2023-11-22T08:25:07;4.28;;;1.50;;
1949;SDS011;975;48.760;9.152;2023-11-22T08:27:38;5.15;;;1.92;;
1949;SDS011;975;48.760;9.152;2023-11-22T08:30:06;3.00;;;1.50;;
1949;SDS011;975;48.760;9.152;2023-11-22T08:32:39;4.10;;;1.52;;
1949;SDS011;975;48.760;9.152;2023-11-22T08:35:07;5.72;;;1.42;;
1949;SDS011;975;48.760;9.152;2023-11-22T08:37:35;2.55;;;1.63;;
1949;SDS011;975;48.760;9.152;2023-11-22T08:40:04;3.92;;;1.65;;
1949;SDS011;975;48.760;9.152;2023-11-22T08:42:34;3.33;;;1.67;;
1949;SDS011;975;48.760;9.152;2023-11-22T08:45:02;3.30;;;1.73;;
1949;SDS011;975;48.760;9.152;2023-11-22T08:47:29;3.15;;;1.55;;
1949;SDS011;975;48.760;9.152;2023-11-22T08:49:57;3.33;;;1.80;;
1949;SDS011;975;48.760;9.152;2023-11-22T08:52:24;3.83;;;1.80;;
1949;SDS011;975;48.760;9.152;2023-11-22T08:54:52;8.45;;;1.80;;
1949;SDS011;975;48.760;9.152;2023-11-22T08:57:20;2.83;;;1.35;;
1949;SDS011;975;48.760;9.152;2023-11-22T08:59:48;4.13;;;1.90;;
1949;SDS011;975;48.760;9.152;2023-11-22T09:02:16;4.68;;;1.58;;
1949;SDS011;975;48.760;9.152;2023-11-22T09:04:44;3.67;;;1.55;;
1949;SDS011;975;48.760;9.152;2023-11-22T09:07:11;2.20;;;1.50;;
1949;SDS011;975;48.760;9.152;2023-11-22T09:09:39;4.38;;;1.73;;
1949;SDS011;975;48.760;9.152;2023-11-22T09:12:08;3.55;;;1.70;;
1949;SDS011;975;48.760;9.152;2023-11-22T09:14:38;3.75;;;2.00;;
1949;SDS011;975;48.760;9.152;2023-11-22T09:17:08;4.05;;;2.00;;
1949;SDS011;975;48.760;9.152;2023-11-22T09:19:36;4.93;;;1.67;;
1949;SDS011;975;48.760;9.152;2023-11-22T09:22:04;7.55;;;1.88;;
1949;SDS011;975;48.760;9.152;2023-11-22T09:24:32;3.95;;;1.70;;
1949;SDS011;975;48.760;9.152;2023-11-22T09:27:02;3.38;;;1.67;;
1949;SDS011;975;48.760;9.152;2023-11-22T09:29:31;4.22;;;2.10;;
1949;SDS011;975;48.760;9.152;2023-11-22T09:31:59;5.13;;;2.22;;
1949;SDS011;975;48.760;9.152;2023-11-22T09:34:29;2.45;;;1.85;;
1949;SDS011;975;48.760;9.152;2023-11-22T09:36:56;5.22;;;2.03;;
1949;SDS011;975;48.760;9.152;2023-11-22T09:39:24;4.38;;;1.98;;
1949;SDS011;975;48.760;9.152;2023-11-22T09:41:53;4.72;;;2.45;;
1949;SDS011;975;48.760;9.152;2023-11-22T09:44:20;3.30;;;1.92;;
1949;SDS011;975;48.760;9.152;2023-11-22T09:46:48;4.75;;;2.47;;
1949;SDS011;975;48.760;9.152;2023-11-22T09:49:19;6.05;;;2.13;;
1949;SDS011;975;48.760;9.152;2023-11-22T09:51:50;4.60;;;1.77;;
1949;SDS011;975;48.760;9.152;2023-11-22T09:54:18;6.90;;;2.47;;
1949;SDS011;975;48.760;9.152;2023-11-22T09:56:49;7.70;;;2.95;;
1949;SDS011;975;48.760;9.152;2023-11-22T09:59:18;3.30;;;1.77;;
1949;SDS011;975;48.760;9.152;2023-11-22T10:01:48;4.82;;;2.58;;
1949;SDS011;975;48.760;9.152;2023-11-22T10:04:17;5.07;;;2.35;;
1949;SDS011;975;48.760;9.152;2023-11-22T10:06:45;7.38;;;2.15;;
1949;SDS011;975;48.760;9.152;2023-11-22T10:09:15;6.50;;;2.20;;
1949;SDS011;975;48.760;9.152;2023-11-22T10:11:42;4.63;;;1.98;;
1949;SDS011;975;48.760;9.152;2023-11-22T10:14:12;5.88;;;2.83;;
1949;SDS011;975;48.760;9.152;2023-11-22T10:16:57;4.72;;;2.13;;
1949;SDS011;975;48.760;9.152;2023-11-22T10:19:24;4.78;;;2.45;;
1949;SDS011;975;48.760;9.152;2023-11-22T10:22:01;8.93;;;2.47;;
1949;SDS011;975;48.760;9.152;2023-11-22T10:27:00;8.57;;;2.70;;
1949;SDS011;975;48.760;9.152;2023-11-22T10:29:28;6.65;;;2.33;;
1949;SDS011;975;48.760;9.152;2023-11-22T10:31:55;7.78;;;2.33;;
1949;SDS011;975;48.760;9.152;2023-11-22T10:34:23;4.63;;;2.25;;
1949;SDS011;975;48.760;9.152;2023-11-22T10:36:51;9.10;;;2.35;;
1949;SDS011;975;48.760;9.152;2023-11-22T10:39:19;5.32;;;2.20;;
1949;SDS011;975;48.760;9.152;2023-11-22T10:41:47;6.57;;;2.40;;
1949;SDS011;975;48.760;9.152;2023-11-22T10:44:17;5.03;;;2.60;;
1949;SDS011;975;48.760;9.152;2023-11-22T10:46:46;7.50;;;2.38;;
1949;SDS011;975;48.760;9.152;2023-11-22T10:49:16;6.40;;;1.95;;
1949;SDS011;975;48.760;9.152;2023-11-22T10:51:44;5.82;;;2.53;;
1949;SDS011;975;48.760;9.152;2023-11-22T10:54:15;6.15;;;2.92;;
1949;SDS011;975;48.760;9.152;2023-11-22T10:56:43;6.60;;;2.45;;
1949;SDS011;975;48.760;9.152;2023-11-22T10:59:13;4.97;;;2.45;;
1949;SDS011;975;48.760;9.152;2023-11-22T11:01:44;5.65;;;2.75;;
1949;SDS011;975;48.760;9.152;2023-11-22T11:04:19;6.43;;;2.67;;
1949;SDS011;975;48.760;9.152;2023-11-22T11:06:49;7.55;;;2.63;;
1949;SDS011;975;48.760;9.152;2023-11-22T11:09:18;7.60;;;2.65;;
1949;SDS011;975;48.760;9.152;2023-11-22T11:11:50;5.38;;;2.22;;
1949;SDS011;975;48.760;9.152;2023-11-22T11:14:17;6.70;;;2.80;;
1949;SDS011;975;48.760;9.152;2023-11-22T11:16:46;7.88;;;3.15;;
1949;SDS011;975;48.760;9.152;2023-11-22T11:19:15;5.82;;;2.83;;
1949;SDS011;975;48.760;9.152;2023-11-22T11:21:43;5.38;;;2.42;;
1949;SDS011;975;48.760;9.152;2023-11-22T11:24:11;9.60;;;3.20;;
1949;SDS011;975;48.760;9.152;2023-11-22T11:26:39;6.03;;;2.60;;
1949;SDS011;975;48.760;9.152;2023-11-22T11:29:07;5.35;;;2.53;;
1949;SDS011;975;48.760;9.152;2023-11-22T11:31:56;5.43;;;2.58;;
1949;SDS011;975;48.760;9.152;2023-11-22T11:34:23;7.18;;;3.05;;
1949;SDS011;975;48.760;9.152;2023-11-22T11:36:52;6.32;;;2.67;;
1949;SDS011;975;48.760;9.152;2023-11-22T11:39:24;7.47;;;3.42;;
1949;SDS011;975;48.760;9.152;2023-11-22T11:42:07;4.50;;;2.58;;
1949;SDS011;975;48.760;9.152;2023-11-22T11:44:35;6.40;;;2.38;;
1949;SDS011;975;48.760;9.152;2023-11-22T11:47:10;8.15;;;3.35;;
1949;SDS011;975;48.760;9.152;2023-11-22T11:49:37;6.78;;;2.97;;
1949;SDS011;975;48.760;9.152;2023-11-22T11:52:05;5.53;;;2.78;;
1949;SDS011;975;48.760;9.152;2023-11-22T11:54:33;4.80;;;2.60;;
1949;SDS011;975;48.760;9.152;2023-11-22T11:57:01;5.78;;;2.78;;
1949;SDS011;975;48.760;9.152;2023-11-22T11:59:28;5.30;;;2.67;;
1949;SDS011;975;48.760;9.152;2023-11-22T12:01:59;7.05;;;2.97;;
1949;SDS011;975;48.760;9.152;2023-11-22T12:04:27;6.70;;;2.55;;
1949;SDS011;975;48.760;9.152;2023-11-22T12:06:55;4.63;;;2.60;;
1949;SDS011;975;48.760;9.152;2023-11-22T12:09:23;6.43;;;3.05;;
1949;SDS011;975;48.760;9.152;2023-11-22T12:11:51;6.07;;;2.78;;
1949;SDS011;975;48.760;9.152;2023-11-22T12:14:19;6.35;;;3.17;;
1949;SDS011;975;48.760;9.152;2023-11-22T12:16:47;6.43;;;2.58;;
1949;SDS011;975;48.760;9.152;2023-11-22T12:19:21;6.68;;;2.35;;
1949;SDS011;975;48.760;9.152;2023-11-22T12:21:50;8.25;;;3.13;;
1949;SDS011;975;48.760;9.152;2023-11-22T12:24:18;10.02;;;2.85;;
1949;SDS011;975;48.760;9.152;2023-11-22T12:26:45;6.13;;;2.80;;
1949;SDS011;975;48.760;9.152;2023-11-22T12:29:15;6.22;;;2.60;;
1949;SDS011;975;48.760;9.152;2023-11-22T12:31:44;8.82;;;3.20;;
1949;SDS011;975;48.760;9.152;2023-11-22T12:34:12;5.10;;;2.60;;
1949;SDS011;975;48.760;9.152;2023-11-22T12:36:40;4.63;;;2.60;;
1949;SDS011;975;48.760;9.152;2023-11-22T12:39:09;8.50;;;3.30;;
1949;SDS011;975;48.760;9.152;2023-11-22T12:41:42;7.82;;;3.17;;
1949;SDS011;975;48.760;9.152;2023-11-22T12:44:10;7.60;;;3.20;;
1949;SDS011;975;48.760;9.152;2023-11-22T12:46:48;6.80;;;2.58;;
1949;SDS011;975;48.760;9.152;2023-11-22T12:49:22;5.78;;;2.55;;
1949;SDS011;975;48.760;9.152;2023-11-22T12:51:50;6.38;;;2.58;;
1949;SDS011;975;48.760;9.152;2023-11-22T12:54:20;8.68;;;3.33;;
1949;SDS011;975;48.760;9.152;2023-11-22T12:56:48;7.82;;;3.13;;
1949;SDS011;975;48.760;9.152;2023-11-22T12:59:19;4.55;;;2.75;;
1949;SDS011;975;48.760;9.152;2023-11-22T13:01:47;10.57;;;3.50;;
1949;SDS011;975;48.760;9.152;2023-11-22T13:04:14;6.43;;;2.75;;
1949;SDS011;975;48.760;9.152;2023-11-22T13:06:42;5.35;;;2.40;;
1949;SDS011;975;48.760;9.152;2023-11-22T13:09:10;8.00;;;3.70;;
1949;SDS011;975;48.760;9.152;2023-11-22T13:11:42;6.88;;;2.85;;
1949;SDS011;975;48.760;9.152;2023-11-22T13:14:09;10.98;;;3.58;;
1949;SDS011;975;48.760;9.152;2023-11-22T13:16:39;6.00;;;2.70;;
1949;SDS011;975;48.760;9.152;2023-11-22T13:19:08;5.93;;;2.83;;
1949;SDS011;975;48.760;9.152;2023-11-22T13:21:35;5.47;;;2.85;;
1949;SDS011;975;48.760;9.152;2023-11-22T13:24:03;6.78;;;2.92;;
1949;SDS011;975;48.760;9.152;2023-11-22T13:26:32;7.03;;;3.00;;
1949;SDS011;975;48.760;9.152;2023-11-22T13:29:01;6.80;;;3.28;;
1949;SDS011;975;48.760;9.152;2023-11-22T13:31:29;7.65;;;2.67;;
1949;SDS011;975;48.760;9.152;2023-11-22T13:33:56;6.78;;;2.90;;
1949;SDS011;975;48.760;9.152;2023-11-22T13:36:24;6.28;;;2.70;;
1949;SDS011;975;48.760;9.152;2023-11-22T13:38:53;7.15;;;3.05;;
1949;SDS011;975;48.760;9.152;2023-11-22T13:41:21;6.13;;;2.85;;
1949;SDS011;975;48.760;9.152;2023-11-22T13:43:50;7.45;;;2.75;;
1949;SDS011;975;48.760;9.152;2023-11-22T13:46:19;6.13;;;2.95;;
1949;SDS011;975;48.760;9.152;2023-11-22T13:48:47;8.15;;;3.03;;
1949;SDS011;975;48.760;9.152;2023-11-22T13:51:15;5.57;;;2.78;;
1949;SDS011;975;48.760;9.152;2023-11-22T13:53:43;6.43;;;2.53;;
1949;SDS011;975;48.760;9.152;2023-11-22T13:56:14;7.05;;;2.72;;
1949;SDS011;975;48.760;9.152;2023-11-22T13:58:42;7.50;;;3.38;;
1949;SDS011;975;48.760;9.152;2023-11-22T14:01:10;7.30;;;3.13;;
1949;SDS011;975;48.760;9.152;2023-11-22T14:03:43;7.45;;;3.22;;
1949;SDS011;975;48.760;9.152;2023-11-22T14:06:11;8.13;;;3.20;;
1949;SDS011;975;48.760;9.152;2023-11-22T14:08:42;9.15;;;3.30;;
1949;SDS011;975;48.760;9.152;2023-11-22T14:11:10;8.18;;;3.83;;
1949;SDS011;975;48.760;9.152;2023-11-22T14:13:38;8.00;;;2.90;;
1949;SDS011;975;48.760;9.152;2023-11-22T14:16:06;8.57;;;3.15;;
1949;SDS011;975;48.760;9.152;2023-11-22T14:18:34;8.43;;;2.47;;
1949;SDS011;975;48.760;9.152;2023-11-22T14:21:03;7.63;;;2.80;;
1949;SDS011;975;48.760;9.152;2023-11-22T14:23:30;5.88;;;2.55;;
1949;SDS011;975;48.760;9.152;2023-11-22T14:25:58;7.57;;;3.17;;
1949;SDS011;975;48.760;9.152;2023-11-22T14:28:27;6.82;;;3.08;;
1949;SDS011;975;48.760;9.152;2023-11-22T14:30:54;5.72;;;2.75;;
1949;SDS011;975;48.760;9.152;2023-11-22T14:33:22;4.97;;;2.85;;
1949;SDS011;975;48.760;9.152;2023-11-22T14:35:49;7.07;;;3.13;;
1949;SDS011;975;48.760;9.152;2023-11-22T14:38:18;8.55;;;3.30;;
1949;SDS011;975;48.760;9.152;2023-11-22T14:40:47;5.88;;;3.00;;
1949;SDS011;975;48.760;9.152;2023-11-22T14:43:14;7.13;;;3.10;;
1949;SDS011;975;48.760;9.152;2023-11-22T14:45:42;7.05;;;2.90;;
1949;SDS011;975;48.760;9.152;2023-11-22T14:48:09;6.95;;;2.92;;
1949;SDS011;975;48.760;9.152;2023-11-22T14:50:38;6.60;;;2.58;;
1949;SDS011;975;48.760;9.152;2023-11-22T14:53:06;7.43;;;3.08;;
1949;SDS011;975;48.760;9.152;2023-11-22T14:55:35;7.65;;;3.08;;
1949;SDS011;975;48.760;9.152;2023-11-22T14:58:05;7.07;;;3.00;;
1949;SDS011;975;48.760;9.152;2023-11-22T15:00:33;6.70;;;3.00;;
1949;SDS011;975;48.760;9.152;2023-11-22T15:03:03;6.28;;;3.25;;
1949;SDS011;975;48.760;9.152;2023-11-22T15:05:30;6.35;;;3.33;;
1949;SDS011;975;48.760;9.152;2023-11-22T15:07:58;8.45;;;3.80;;
1949;SDS011;975;48.760;9.152;2023-11-22T15:10:25;7.18;;;3.55;;
1949;SDS011;975;48.760;9.152;2023-11-22T15:12:54;6.40;;;3.10;;
1949;SDS011;975;48.760;9.152;2023-11-22T15:15:22;5.55;;;3.00;;
1949;SDS011;975;48.760;9.152;2023-11-22T15:17:50;14.20;;;5.75;;
1949;SDS011;975;48.760;9.152;2023-11-22T15:20:18;9.10;;;3.47;;
1949;SDS011;975;48.760;9.152;2023-11-22T15:22:45;7.20;;;3.42;;
1949;SDS011;975;48.760;9.152;2023-11-22T15:25:13;7.80;;;2.90;;
1949;SDS011;975;48.760;9.152;2023-11-22T15:27:41;8.90;;;3.10;;
1949;SDS011;975;48.760;9.152;2023-11-22T15:30:11;6.20;;;2.78;;
1949;SDS011;975;48.760;9.152;2023-11-22T15:32:39;6.32;;;3.30;;
1949;SDS011;975;48.760;9.152;2023-11-22T15:35:06;6.82;;;2.92;;
1949;SDS011;975;48.760;9.152;2023-11-22T15:37:34;8.43;;;2.90;;
1949;SDS011;975;48.760;9.152;2023-11-22T15:40:03;5.93;;;2.72;;